Time;durP1;ratioP1;P1;durP2;ratioP2;P2;SDS_P1;SDS_P2;PMS_P1;PMS_P2;Temp;Humidity;BMP_temperature;BMP_pressure;BME280_temperature;BME280_humidity;BME280_pressure;Samples;Min_cycle;Max_cycle;Signal;HPM_P1;HPM_P2
2024/04/15 00:00:15;;;;;;;4.13;3.27;;;16.40;99.90;;;;;;5395628;26;20270;-71
2024/04/15 00:02:43;;;;;;;8.20;3.80;;;16.40;99.90;;;;;;5392779;26;20268;-73
2024/04/15 00:05:09;;;;;;;4.83;3.37;;;16.40;99.90;;;;;;5393850;26;20957;-72
2024/04/15 00:07:36;;;;;;;6.63;3.27;;;16.40;99.90;;;;;;5361668;26;20273;-73
2024/04/15 00:10:01;;;;;;;5.03;3.30;;;16.50;99.90;;;;;;5390193;26;20581;-71
2024/04/15 00:12:27;;;;;;;3.73;3.27;;;16.50;99.90;;;;;;5387724;26;20375;-72
2024/04/15 00:14:53;;;;;;;8.90;4.40;;;16.50;99.90;;;;;;5390583;26;20355;-72
2024/04/15 00:17:18;;;;;;;6.83;3.40;;;16.40;99.90;;;;;;5379133;26;20265;-72
2024/04/15 00:19:44;;;;;;;6.60;4.70;;;16.40;99.90;;;;;;5368981;26;20257;-73
2024/04/15 00:22:09;;;;;;;6.67;4.73;;;16.30;99.90;;;;;;5374491;26;20342;-71
2024/04/15 00:24:35;;;;;;;3.90;3.50;;;16.30;99.90;;;;;;5341741;26;20934;-72
2024/04/15 00:27:01;;;;;;;4.07;3.77;;;16.30;99.90;;;;;;5379862;26;20254;-70
2024/04/15 00:29:26;;;;;;;4.77;3.40;;;16.40;99.90;;;;;;5358497;26;20799;-74
2024/04/15 00:31:52;;;;;;;3.97;3.07;;;16.50;99.90;;;;;;5359386;26;20307;-73
2024/04/15 00:34:19;;;;;;;4.87;3.13;;;16.50;99.90;;;;;;5389576;26;20266;-73
2024/04/15 00:36:45;;;;;;;3.13;2.83;;;16.50;99.90;;;;;;5388474;26;20317;-73
2024/04/15 00:39:13;;;;;;;3.93;3.10;;;16.60;99.90;;;;;;5387130;26;20614;-72
2024/04/15 00:41:39;;;;;;;3.47;3.17;;;16.60;99.90;;;;;;5381814;26;20543;-73
2024/04/15 00:44:05;;;;;;;5.87;3.13;;;16.60;99.90;;;;;;5389436;26;20479;-73
2024/04/15 00:46:31;;;;;;;3.93;3.10;;;16.50;99.90;;;;;;5380082;26;20276;-73
2024/04/15 00:48:58;;;;;;;5.70;2.70;;;16.50;99.90;;;;;;5385407;26;20343;-72
2024/04/15 00:51:25;;;;;;;3.40;3.10;;;16.40;99.90;;;;;;5375344;26;20485;-72
2024/04/15 00:53:52;;;;;;;6.20;3.37;;;16.40;99.90;;;;;;5395142;26;20574;-72
2024/04/15 00:56:23;;;;;;;3.33;3.03;;;16.40;99.90;;;;;;5378515;26;20477;-72
2024/04/15 00:58:49;;;;;;;5.23;3.43;;;16.40;99.90;;;;;;5376928;26;20537;-72
2024/04/15 01:01:16;;;;;;;5.20;3.60;;;16.40;99.90;;;;;;5361772;26;20483;-71
2024/04/15 01:03:42;;;;;;;3.43;3.13;;;16.30;99.90;;;;;;5378672;26;20626;-75
2024/04/15 01:06:08;;;;;;;3.20;2.90;;;16.30;99.90;;;;;;5399243;26;20572;-73
2024/04/15 01:08:34;;;;;;;3.60;3.30;;;16.30;99.90;;;;;;5388375;26;20570;-73
2024/04/15 01:10:59;;;;;;;4.40;3.43;;;16.30;99.90;;;;;;5394621;26;21002;-73
2024/04/15 01:13:25;;;;;;;4.50;3.03;;;16.30;99.90;;;;;;5399669;26;20254;-73
2024/04/15 01:15:58;;;;;;;5.20;3.17;;;16.30;99.90;;;;;;5397776;26;20253;-74
2024/04/15 01:18:24;;;;;;;5.93;3.00;;;16.30;99.90;;;;;;5376020;26;20744;-70
2024/04/15 01:20:55;;;;;;;3.57;2.83;;;16.30;99.90;;;;;;5398142;26;20499;-73
2024/04/15 01:23:28;;;;;;;4.73;3.10;;;16.30;99.90;;;;;;5388015;26;20502;-73
2024/04/15 01:25:54;;;;;;;7.50;3.40;;;16.30;99.90;;;;;;5386057;26;20471;-72
2024/04/15 01:28:20;;;;;;;3.37;3.10;;;16.30;99.90;;;;;;5380552;26;20490;-72
2024/04/15 01:30:46;;;;;;;5.87;3.00;;;16.30;99.90;;;;;;5346227;26;20269;-71
2024/04/15 01:33:12;;;;;;;3.90;3.60;;;16.30;99.90;;;;;;5376578;26;20849;-73
2024/04/15 01:35:38;;;;;;;3.53;3.23;;;16.30;99.90;;;;;;5380184;26;20483;-73
2024/04/15 01:38:04;;;;;;;5.73;3.33;;;16.30;99.90;;;;;;5362759;26;20611;-73
2024/04/15 01:40:29;;;;;;;5.37;4.03;;;16.30;99.90;;;;;;5381616;26;20269;-72
2024/04/15 01:42:55;;;;;;;3.60;3.30;;;16.30;99.90;;;;;;5382643;26;20305;-72
2024/04/15 01:45:21;;;;;;;5.00;3.40;;;16.30;99.90;;;;;;5389231;26;20622;-74
2024/04/15 01:47:48;;;;;;;5.20;3.83;;;16.20;99.90;;;;;;5383292;26;20319;-73
2024/04/15 01:50:20;;;;;;;6.33;3.90;;;16.20;99.90;;;;;;5382098;26;20635;-73
2024/04/15 01:52:46;;;;;;;4.40;3.93;;;16.20;99.90;;;;;;5383783;26;20490;-72
2024/04/15 01:55:11;;;;;;;4.03;3.43;;;16.20;99.90;;;;;;5360752;26;20543;-72
2024/04/15 01:57:37;;;;;;;4.67;3.83;;;16.10;99.90;;;;;;5380086;26;20996;-76
2024/04/15 02:00:04;;;;;;;7.43;3.20;;;16.10;99.90;;;;;;5378775;26;20667;-71
2024/04/15 02:02:37;;;;;;;3.23;3.03;;;16.00;99.90;;;;;;5372859;26;20392;-73
2024/04/15 02:05:05;;;;;;;6.83;3.77;;;16.00;99.90;;;;;;5373541;26;20502;-75
2024/04/15 02:07:31;;;;;;;3.50;3.20;;;16.00;99.90;;;;;;5378711;26;20261;-72
2024/04/15 02:09:57;;;;;;;8.00;3.77;;;16.00;99.90;;;;;;5362701;26;21097;-70
2024/04/15 02:12:22;;;;;;;4.30;3.80;;;16.00;99.90;;;;;;5372802;26;20251;-73
2024/04/15 02:14:48;;;;;;;4.17;3.47;;;16.00;99.90;;;;;;5358350;26;20257;-72
2024/04/15 02:17:13;;;;;;;7.63;3.50;;;16.00;99.90;;;;;;5386036;26;20291;-73
2024/04/15 02:19:39;;;;;;;3.90;3.60;;;15.90;99.90;;;;;;5381481;26;20304;-73
2024/04/15 02:22:08;;;;;;;6.30;3.50;;;15.80;99.90;;;;;;5375072;26;20265;-73
2024/04/15 02:24:34;;;;;;;4.00;3.70;;;15.80;99.90;;;;;;5386541;26;20259;-70
2024/04/15 02:26:59;;;;;;;3.40;3.13;;;15.70;99.90;;;;;;5363756;26;20912;-72
2024/04/15 02:29:25;;;;;;;4.40;3.30;;;15.70;99.90;;;;;;5357245;26;20257;-72
2024/04/15 02:31:50;;;;;;;4.23;3.40;;;15.60;99.90;;;;;;5376137;26;20779;-72
2024/04/15 02:34:17;;;;;;;4.27;3.87;;;15.60;99.90;;;;;;5382280;26;20270;-74
2024/04/15 02:36:43;;;;;;;4.03;3.60;;;15.70;99.90;;;;;;5383262;26;20369;-71
2024/04/15 02:39:08;;;;;;;5.50;3.30;;;15.60;99.90;;;;;;5385110;26;20492;-72
2024/04/15 02:41:34;;;;;;;7.47;3.80;;;15.60;99.90;;;;;;5378259;26;20346;-72
2024/04/15 02:43:59;;;;;;;7.40;3.60;;;15.60;99.90;;;;;;5389083;26;20249;-72
2024/04/15 02:46:25;;;;;;;4.53;3.90;;;15.60;99.90;;;;;;5385269;26;20346;-74
2024/04/15 02:48:51;;;;;;;8.40;5.40;;;15.60;99.90;;;;;;5381014;26;20265;-71
2024/04/15 02:51:16;;;;;;;4.00;3.60;;;15.70;99.90;;;;;;5361803;26;20258;-71
2024/04/15 02:53:42;;;;;;;7.63;3.40;;;15.60;99.90;;;;;;5375839;26;20865;-69
2024/04/15 02:56:07;;;;;;;8.67;4.80;;;15.60;99.90;;;;;;5377691;26;20270;-72
2024/04/15 02:58:33;;;;;;;4.50;4.10;;;15.60;99.90;;;;;;5383239;26;20758;-70
2024/04/15 03:00:59;;;;;;;6.60;4.37;;;15.60;99.90;;;;;;5382155;26;20265;-70
2024/04/15 03:03:24;;;;;;;3.97;3.60;;;15.60;99.90;;;;;;5383453;26;20266;-73
2024/04/15 03:05:50;;;;;;;5.90;4.53;;;15.60;99.90;;;;;;5381030;26;20790;-72
2024/04/15 03:08:16;;;;;;;4.93;4.17;;;15.50;99.90;;;;;;5379818;26;20303;-73
2024/04/15 03:10:41;;;;;;;4.23;3.83;;;15.50;99.90;;;;;;5375146;26;20269;-72
2024/04/15 03:13:07;;;;;;;6.23;4.50;;;15.50;99.90;;;;;;5380842;26;20271;-70
2024/04/15 03:15:33;;;;;;;7.23;4.20;;;15.40;99.90;;;;;;5347746;26;20258;-72
2024/04/15 03:17:58;;;;;;;5.30;4.17;;;15.40;99.90;;;;;;5380559;26;20259;-70
2024/04/15 03:20:28;;;;;;;8.30;4.43;;;15.30;99.90;;;;;;5413291;26;20262;-71
2024/04/15 03:22:53;;;;;;;4.73;4.23;;;15.20;99.90;;;;;;5387652;26;20303;-70
2024/04/15 03:25:20;;;;;;;5.03;4.27;;;15.30;99.90;;;;;;5389287;26;20502;-70
2024/04/15 03:27:49;;;;;;;6.83;4.03;;;15.40;99.90;;;;;;5363971;26;20252;-70
2024/04/15 03:30:15;;;;;;;7.00;4.20;;;15.30;99.90;;;;;;5382993;26;20481;-72
2024/04/15 03:32:41;;;;;;;6.20;3.53;;;15.30;99.90;;;;;;5384358;26;20535;-72
2024/04/15 03:35:12;;;;;;;5.87;3.90;;;15.30;99.90;;;;;;5389991;26;20579;-71
2024/04/15 03:37:37;;;;;;;4.97;4.53;;;15.20;99.90;;;;;;5391932;25;20586;-71
2024/04/15 03:40:04;;;;;;;8.17;4.27;;;15.20;99.90;;;;;;5381967;25;20533;-69
2024/04/15 03:42:30;;;;;;;5.80;4.23;;;15.20;99.90;;;;;;5379938;25;20257;-70
2024/04/15 03:44:56;;;;;;;4.77;4.10;;;15.20;99.90;;;;;;5380410;26;20523;-70
2024/04/15 03:47:21;;;;;;;4.30;3.90;;;15.20;99.90;;;;;;5370869;26;20319;-70
2024/04/15 03:49:47;;;;;;;7.57;4.63;;;15.20;99.90;;;;;;5376216;26;20273;-70
2024/04/15 03:52:12;;;;;;;7.80;4.03;;;15.20;99.90;;;;;;5377898;26;20309;-73
2024/04/15 03:54:38;;;;;;;7.90;4.30;;;15.10;99.90;;;;;;5375330;26;20807;-71
2024/04/15 03:57:04;;;;;;;4.43;4.00;;;15.00;99.90;;;;;;5381694;26;20308;-70
2024/04/15 03:59:31;;;;;;;5.03;4.53;;;15.10;99.90;;;;;;5376627;26;20267;-69
2024/04/15 04:01:56;;;;;;;4.30;3.90;;;15.10;99.90;;;;;;5344609;26;20492;-74
2024/04/15 04:04:30;;;;;;;7.87;4.27;;;15.10;99.90;;;;;;5384515;26;20491;-72
2024/04/15 04:06:57;;;;;;;5.33;3.50;;;15.20;99.90;;;;;;5384693;26;20549;-70
2024/04/15 04:09:22;;;;;;;5.40;4.03;;;15.10;99.90;;;;;;5376578;26;20492;-73
2024/04/15 04:11:51;;;;;;;6.80;3.87;;;15.10;99.90;;;;;;5377949;26;20581;-72
2024/04/15 04:14:16;;;;;;;4.73;4.20;;;15.00;99.90;;;;;;5374090;26;20360;-72
2024/04/15 04:16:45;;;;;;;4.70;4.17;;;15.00;99.90;;;;;;5383822;26;20903;-72
2024/04/15 04:19:11;;;;;;;7.43;4.60;;;15.00;99.90;;;;;;5392713;26;20300;-73
2024/04/15 04:21:37;;;;;;;4.43;4.03;;;14.80;99.90;;;;;;5393222;26;20479;-75
2024/04/15 04:24:02;;;;;;;7.33;5.13;;;14.80;99.90;;;;;;5361853;26;20464;-71
2024/04/15 04:26:28;;;;;;;5.90;5.23;;;14.90;99.90;;;;;;5402315;26;20373;-71
2024/04/15 04:28:55;;;;;;;6.20;4.33;;;14.80;99.90;;;;;;5393092;26;20341;-70
2024/04/15 04:31:21;;;;;;;4.97;4.57;;;14.80;99.90;;;;;;5392279;26;20658;-72
2024/04/15 04:33:47;;;;;;;6.90;5.57;;;14.80;99.90;;;;;;5387436;26;20474;-70
2024/04/15 04:36:18;;;;;;;8.13;6.20;;;14.80;99.90;;;;;;5396954;26;20300;-70
2024/04/15 04:38:44;;;;;;;21.63;11.30;;;14.90;99.90;;;;;;5375691;26;20262;-71
2024/04/15 04:41:10;;;;;;;18.33;12.50;;;14.90;99.90;;;;;;5396414;26;20571;-70
2024/04/15 04:43:36;;;;;;;18.37;13.97;;;14.90;99.90;;;;;;5389870;26;20343;-71
2024/04/15 04:46:12;;;;;;;21.63;13.97;;;14.90;99.90;;;;;;5392944;26;20586;-74
2024/04/15 04:48:38;;;;;;;14.27;10.17;;;14.90;99.90;;;;;;5393832;26;20273;-73
2024/04/15 04:51:05;;;;;;;14.13;8.50;;;14.90;99.90;;;;;;5390999;26;20470;-70
2024/04/15 04:53:30;;;;;;;12.17;9.17;;;14.90;99.90;;;;;;5390425;26;20595;-72
2024/04/15 04:56:12;;;;;;;11.90;8.30;;;14.90;99.90;;;;;;5386865;26;20483;-71
2024/04/15 04:58:38;;;;;;;9.93;7.30;;;14.90;99.90;;;;;;5405491;26;20300;-69
2024/04/15 05:01:15;;;;;;;7.80;5.90;;;14.90;99.90;;;;;;5396269;26;20599;-72
2024/04/15 05:03:49;;;;;;;10.00;6.70;;;14.90;99.90;;;;;;5397917;26;21096;-70
2024/04/15 05:06:17;;;;;;;7.93;6.90;;;14.80;99.90;;;;;;5387823;26;20484;-71
2024/04/15 05:08:46;;;;;;;11.40;7.70;;;14.90;99.90;;;;;;5385953;26;20491;-72
2024/04/15 05:11:12;;;;;;;11.87;8.07;;;14.90;99.90;;;;;;5391635;26;20542;-69
2024/04/15 05:13:38;;;;;;;11.20;8.07;;;14.90;99.90;;;;;;5359660;26;20588;-69
2024/04/15 05:16:06;;;;;;;7.50;6.27;;;14.90;99.90;;;;;;5387242;26;20572;-70
2024/04/15 05:18:32;;;;;;;12.50;9.00;;;14.90;99.90;;;;;;5349323;26;20492;-71
2024/04/15 05:20:59;;;;;;;10.30;7.90;;;14.80;99.90;;;;;;5379407;26;20496;-70
2024/04/15 05:23:28;;;;;;;8.63;7.70;;;14.80;99.90;;;;;;5397929;26;21004;-71
2024/04/15 05:25:56;;;;;;;9.43;7.17;;;14.60;99.90;;;;;;5356952;26;20485;-71
2024/04/15 05:28:22;;;;;;;8.73;6.30;;;14.70;99.90;;;;;;5366477;26;20476;-70
2024/04/15 05:30:49;;;;;;;6.67;5.73;;;14.60;99.90;;;;;;5381881;26;21216;-72
2024/04/15 05:33:15;;;;;;;8.50;5.47;;;14.40;99.90;;;;;;5388753;26;20609;-71
2024/04/15 05:35:42;;;;;;;6.30;5.00;;;14.30;99.90;;;;;;5361972;26;20605;-70
2024/04/15 05:38:07;;;;;;;7.20;4.90;;;14.30;99.90;;;;;;5386881;26;20323;-71
2024/04/15 05:40:33;;;;;;;5.60;5.00;;;14.40;99.90;;;;;;5389541;26;21087;-73
2024/04/15 05:42:59;;;;;;;8.10;5.20;;;14.40;99.90;;;;;;5393866;26;20620;-71
2024/04/15 05:45:25;;;;;;;7.97;5.30;;;14.40;99.90;;;;;;5369973;26;20287;-72
2024/04/15 05:47:50;;;;;;;12.53;6.10;;;14.50;99.90;;;;;;5386052;26;21157;-70
2024/04/15 05:50:16;;;;;;;7.40;5.10;;;14.40;99.90;;;;;;5394745;26;20264;-70
2024/04/15 05:52:41;;;;;;;6.10;4.90;;;14.40;99.90;;;;;;5380485;26;20264;-72
2024/04/15 05:55:07;;;;;;;7.07;5.60;;;14.50;99.90;;;;;;5397859;26;20304;-72
2024/04/15 05:57:33;;;;;;;7.63;5.10;;;14.60;99.90;;;;;;5381462;26;20262;-72
2024/04/15 05:59:58;;;;;;;7.20;5.43;;;14.60;99.90;;;;;;5363595;26;20254;-72
2024/04/15 06:02:24;;;;;;;7.87;5.37;;;14.60;99.90;;;;;;5375768;26;20758;-72
2024/04/15 06:04:50;;;;;;;6.90;5.33;;;14.60;99.90;;;;;;5384148;26;20759;-70
2024/04/15 06:07:17;;;;;;;6.20;5.17;;;14.60;99.90;;;;;;5382989;26;20257;-72
2024/04/15 06:09:42;;;;;;;5.53;5.03;;;14.40;99.90;;;;;;5396495;26;20473;-71
2024/04/15 06:12:08;;;;;;;6.00;5.00;;;14.30;99.90;;;;;;5380822;26;20617;-70
2024/04/15 06:14:34;;;;;;;6.97;5.10;;;14.20;99.90;;;;;;5388724;26;20266;-72
2024/04/15 06:17:02;;;;;;;8.20;5.37;;;14.20;99.90;;;;;;5352523;26;20327;-73
2024/04/15 06:19:28;;;;;;;6.57;5.80;;;14.10;99.90;;;;;;5377022;26;20299;-72
2024/04/15 06:21:54;;;;;;;10.00;5.80;;;13.90;99.90;;;;;;5381394;26;20486;-72
2024/04/15 06:24:20;;;;;;;8.80;5.20;;;14.00;99.90;;;;;;5373822;26;20266;-74
2024/04/15 06:26:47;;;;;;;6.03;4.73;;;13.90;99.90;;;;;;5392258;26;20295;-71
2024/04/15 06:29:13;;;;;;;5.03;3.80;;;13.80;99.90;;;;;;5358568;26;20293;-73
2024/04/15 06:31:38;;;;;;;6.87;4.07;;;13.80;99.90;;;;;;5383596;26;20486;-72
2024/04/15 06:34:04;;;;;;;2.73;2.53;;;14.00;99.90;;;;;;5382508;26;20334;-74
2024/04/15 06:36:30;;;;;;;3.97;2.30;;;13.90;99.90;;;;;;5374930;26;20624;-72
2024/04/15 06:38:55;;;;;;;2.63;2.37;;;13.80;99.90;;;;;;5374832;26;20265;-72
2024/04/15 06:41:21;;;;;;;9.73;2.67;;;13.90;99.90;;;;;;5382070;26;20258;-72
2024/04/15 06:43:47;;;;;;;2.60;1.80;;;14.00;99.90;;;;;;5400406;26;20623;-74
2024/04/15 06:46:12;;;;;;;3.20;2.00;;;14.10;99.90;;;;;;5381803;26;20346;-72
2024/04/15 06:48:40;;;;;;;8.77;2.43;;;14.00;99.90;;;;;;5342669;26;20718;-72
2024/04/15 06:51:06;;;;;;;3.00;2.10;;;14.00;99.90;;;;;;5387577;26;20769;-72
2024/04/15 06:53:32;;;;;;;4.17;2.33;;;13.70;99.90;;;;;;5344283;26;20480;-72
2024/04/15 06:55:58;;;;;;;2.43;1.57;;;13.80;99.90;;;;;;5384579;26;20488;-73
2024/04/15 06:58:24;;;;;;;2.30;2.10;;;13.80;99.90;;;;;;5375887;26;20316;-72
2024/04/15 07:00:49;;;;;;;4.30;2.00;;;13.90;99.90;;;;;;5382308;26;20484;-72
2024/04/15 07:03:15;;;;;;;2.00;1.70;;;13.90;99.90;;;;;;5358509;26;20280;-72
2024/04/15 07:05:41;;;;;;;2.10;1.40;;;13.80;99.90;;;;;;5384531;26;20257;-72
2024/04/15 07:08:07;;;;;;;2.20;2.00;;;13.90;99.90;;;;;;5370769;26;20309;-73
2024/04/15 07:10:32;;;;;;;2.10;1.90;;;14.00;99.90;;;;;;5372506;26;20277;-72
2024/04/15 07:13:00;;;;;;;2.20;1.67;;;14.10;99.90;;;;;;5376294;26;20326;-71
2024/04/15 07:15:25;;;;;;;4.90;1.70;;;14.20;99.90;;;;;;5353582;26;20555;-72
2024/04/15 07:17:51;;;;;;;2.30;1.43;;;14.30;99.90;;;;;;5371100;26;20858;-72
2024/04/15 07:20:17;;;;;;;1.77;1.67;;;14.20;99.90;;;;;;5376604;26;20285;-74
2024/04/15 07:22:45;;;;;;;1.93;1.40;;;14.20;99.90;;;;;;5381668;26;20312;-71
2024/04/15 07:25:11;;;;;;;1.10;1.10;;;14.30;99.90;;;;;;5384555;26;20556;-74
2024/04/15 07:27:39;;;;;;;1.43;1.33;;;14.30;99.90;;;;;;5371556;26;20771;-71
2024/04/15 07:30:06;;;;;;;1.90;1.30;;;14.30;99.90;;;;;;5374350;26;20489;-75
2024/04/15 07:32:32;;;;;;;3.13;1.30;;;14.30;99.90;;;;;;5377038;26;20493;-72
2024/04/15 07:34:58;;;;;;;4.67;2.20;;;14.40;99.90;;;;;;5377828;26;20890;-72
2024/04/15 07:37:23;;;;;;;3.20;2.03;;;14.40;99.90;;;;;;5376244;26;20336;-73
2024/04/15 07:39:50;;;;;;;1.83;1.73;;;14.50;99.90;;;;;;5372016;26;20277;-75
2024/04/15 07:42:16;;;;;;;2.20;1.80;;;14.50;99.90;;;;;;5372681;26;20261;-73
2024/04/15 07:44:41;;;;;;;2.23;1.50;;;14.60;99.90;;;;;;5369294;26;20492;-72
2024/04/15 07:47:07;;;;;;;2.80;1.30;;;14.70;99.90;;;;;;5378950;26;20544;-71
2024/04/15 07:49:35;;;;;;;2.00;1.80;;;14.80;99.90;;;;;;5374614;26;20312;-72
2024/04/15 07:52:01;;;;;;;2.33;2.07;;;14.90;99.90;;;;;;5387381;26;20324;-71
2024/04/15 07:54:27;;;;;;;1.90;1.57;;;15.00;99.90;;;;;;5357118;26;20544;-72
2024/04/15 07:56:52;;;;;;;1.57;1.47;;;15.00;99.90;;;;;;5380696;26;20329;-72
2024/04/15 07:59:18;;;;;;;1.50;1.40;;;15.10;99.90;;;;;;5361159;26;20270;-74
2024/04/15 08:01:43;;;;;;;1.60;1.50;;;15.30;99.90;;;;;;5383003;26;20273;-73
2024/04/15 08:04:10;;;;;;;1.67;1.10;;;15.40;99.90;;;;;;5392598;26;20260;-72
2024/04/15 08:06:36;;;;;;;1.07;0.83;;;15.50;99.90;;;;;;5381239;26;20536;-72
2024/04/15 08:09:02;;;;;;;1.17;1.03;;;15.50;99.90;;;;;;5388752;26;20265;-72
2024/04/15 08:11:28;;;;;;;1.90;1.17;;;15.60;99.90;;;;;;5384162;26;20411;-72
2024/04/15 08:13:54;;;;;;;0.80;0.80;;;15.60;99.90;;;;;;5381144;26;20266;-72
2024/04/15 08:16:21;;;;;;;1.20;1.00;;;15.60;99.90;;;;;;5384027;26;20475;-73
2024/04/15 08:18:50;;;;;;;1.30;1.20;;;15.40;99.50;;;;;;5373255;26;20539;-72
2024/04/15 08:21:15;;;;;;;4.03;0.93;;;15.40;99.70;;;;;;5376223;26;20679;-73
2024/04/15 08:23:41;;;;;;;1.37;1.00;;;15.40;99.90;;;;;;5377144;26;20499;-74
2024/04/15 08:26:08;;;;;;;2.80;1.40;;;15.40;99.90;;;;;;5379376;26;20380;-72
2024/04/15 08:28:34;;;;;;;1.90;1.10;;;15.50;99.90;;;;;;5375768;26;20843;-72
2024/04/15 08:30:59;;;;;;;2.73;0.90;;;15.50;99.90;;;;;;5388577;26;20311;-74
2024/04/15 08:33:25;;;;;;;1.80;1.30;;;15.60;99.90;;;;;;5385448;26;20309;-71
2024/04/15 08:35:51;;;;;;;2.63;1.40;;;15.60;99.90;;;;;;5380808;26;20292;-74
2024/04/15 08:38:17;;;;;;;1.57;1.30;;;15.70;99.90;;;;;;5372394;26;20315;-72
2024/04/15 08:40:53;;;;;;;14.03;1.37;;;15.60;99.90;;;;;;5380418;26;20261;-74
2024/04/15 08:43:22;;;;;;;1.50;1.00;;;15.70;99.90;;;;;;5352830;26;20326;-70
2024/04/15 08:46:11;;;;;;;2.70;1.30;;;15.70;99.90;;;;;;5375901;26;20620;-72
2024/04/15 08:48:38;;;;;;;3.23;2.60;;;15.80;99.80;;;;;;5375703;26;21063;-74
2024/04/15 08:51:03;;;;;;;1.70;1.13;;;15.80;99.50;;;;;;5356717;26;20952;-72
2024/04/15 08:53:30;;;;;;;1.13;1.03;;;15.90;99.10;;;;;;5345599;26;20525;-72
2024/04/15 08:55:55;;;;;;;1.93;1.20;;;16.00;99.00;;;;;;5374556;26;20269;-72
2024/04/15 08:58:23;;;;;;;1.80;1.33;;;16.00;98.50;;;;;;5373756;26;20548;-73
2024/04/15 09:00:49;;;;;;;1.07;1.00;;;16.00;98.10;;;;;;5376464;26;20296;-72
2024/04/15 09:03:15;;;;;;;1.80;1.30;;;16.10;98.60;;;;;;5379394;26;20496;-72
2024/04/15 09:05:41;;;;;;;2.03;1.53;;;16.20;98.10;;;;;;5372749;26;20488;-74
2024/04/15 09:08:08;;;;;;;0.87;0.80;;;16.20;98.40;;;;;;5388702;26;20622;-72
2024/04/15 09:10:33;;;;;;;2.40;1.10;;;16.40;97.30;;;;;;5378294;26;20262;-74
2024/04/15 09:13:01;;;;;;;1.20;1.10;;;16.50;97.40;;;;;;5383105;26;20551;-71
2024/04/15 09:15:26;;;;;;;1.23;1.07;;;16.60;97.20;;;;;;5390672;26;20734;-72
2024/04/15 09:17:53;;;;;;;2.80;1.13;;;16.60;96.90;;;;;;5379990;26;20496;-75
2024/04/15 09:20:21;;;;;;;1.27;0.90;;;16.80;96.20;;;;;;5384514;26;20819;-74
2024/04/15 09:22:47;;;;;;;0.77;0.77;;;17.00;95.70;;;;;;5375832;26;20479;-73
2024/04/15 09:25:13;;;;;;;0.70;0.70;;;17.20;95.50;;;;;;5354109;26;20607;-72
2024/04/15 09:27:39;;;;;;;1.77;1.00;;;17.20;95.20;;;;;;5355122;26;20497;-70
2024/04/15 09:30:06;;;;;;;1.63;1.13;;;17.20;95.50;;;;;;5384791;26;20273;-71
2024/04/15 09:32:33;;;;;;;2.10;0.93;;;17.20;94.70;;;;;;5375478;26;21110;-73
2024/04/15 09:35:01;;;;;;;1.73;0.70;;;17.30;94.90;;;;;;5380188;26;22428;-71
2024/04/15 09:37:27;;;;;;;1.90;1.10;;;17.60;94.20;;;;;;5380750;26;21001;-73
2024/04/15 09:39:53;;;;;;;0.83;0.83;;;17.60;93.90;;;;;;5370386;26;20494;-74
2024/04/15 09:42:19;;;;;;;0.80;0.80;;;17.50;94.40;;;;;;5384988;26;21048;-72
2024/04/15 09:44:47;;;;;;;1.37;1.20;;;17.70;94.80;;;;;;5372669;26;20382;-73
2024/04/15 09:47:13;;;;;;;1.70;1.17;;;17.70;95.30;;;;;;5381096;26;20571;-72
2024/04/15 09:49:39;;;;;;;3.03;1.40;;;17.90;94.30;;;;;;5375206;26;20555;-74
2024/04/15 09:52:27;;;;;;;3.17;1.50;;;18.10;92.70;;;;;;5377811;26;20494;-74
2024/04/15 09:55:04;;;;;;;1.60;1.20;;;18.10;92.80;;;;;;5380502;26;20537;-74
2024/04/15 09:57:32;;;;;;;1.30;1.10;;;18.20;93.20;;;;;;5384820;26;21151;-73
2024/04/15 10:00:01;;;;;;;2.40;0.80;;;18.30;91.20;;;;;;5375178;26;20825;-71
2024/04/15 10:02:34;;;;;;;2.13;0.73;;;18.20;92.20;;;;;;5376963;26;20609;-72
2024/04/15 10:05:23;;;;;;;2.13;1.00;;;18.30;92.10;;;;;;5381760;26;20541;-73
2024/04/15 10:07:52;;;;;;;1.00;0.90;;;18.40;93.40;;;;;;5380143;26;22228;-73
2024/04/15 10:10:21;;;;;;;2.47;0.90;;;18.50;93.40;;;;;;5378106;26;20490;-71
2024/04/15 10:12:50;;;;;;;1.20;1.10;;;18.70;93.30;;;;;;5374614;26;20488;-72
2024/04/15 10:15:17;;;;;;;1.20;1.20;;;18.80;93.20;;;;;;5377100;26;20502;-72
2024/04/15 10:18:02;;;;;;;1.17;1.07;;;18.90;93.30;;;;;;5360992;26;20608;-72
2024/04/15 10:20:32;;;;;;;1.50;0.87;;;19.00;91.70;;;;;;5374981;26;20492;-73
2024/04/15 10:22:59;;;;;;;1.70;0.80;;;18.90;91.10;;;;;;5358173;26;20903;-73
2024/04/15 10:25:26;;;;;;;3.20;0.93;;;18.90;91.90;;;;;;5378685;26;20475;-73
2024/04/15 10:27:52;;;;;;;1.00;0.90;;;18.90;92.30;;;;;;5369720;26;20491;-72
2024/04/15 10:30:18;;;;;;;2.10;0.80;;;19.10;91.80;;;;;;5375189;26;20961;-73
2024/04/15 10:32:47;;;;;;;1.13;0.70;;;19.30;92.20;;;;;;5373765;26;20257;-72
2024/04/15 10:35:24;;;;;;;0.80;0.80;;;19.60;91.00;;;;;;5375067;26;20531;-72
2024/04/15 10:37:51;;;;;;;1.67;0.97;;;19.50;90.40;;;;;;5398300;26;20547;-73
2024/04/15 10:40:20;;;;;;;1.60;0.80;;;19.40;91.30;;;;;;5376677;26;20544;-73
2024/04/15 10:42:45;;;;;;;11.00;0.90;;;19.30;91.90;;;;;;5382412;26;20575;-72
2024/04/15 10:45:19;;;;;;;1.80;1.00;;;19.60;91.60;;;;;;5382907;26;20482;-73
2024/04/15 10:47:48;;;;;;;2.20;0.90;;;19.80;91.40;;;;;;5371675;26;20269;-72
2024/04/15 10:50:15;;;;;;;2.10;0.90;;;19.90;90.50;;;;;;5380309;26;20558;-72
2024/04/15 10:52:40;;;;;;;1.93;0.80;;;20.10;90.10;;;;;;5375584;26;20590;-73
2024/04/15 10:55:07;;;;;;;1.00;1.00;;;20.00;88.00;;;;;;5375823;26;20822;-72
2024/04/15 10:57:33;;;;;;;1.00;0.70;;;19.60;86.10;;;;;;5384586;26;20296;-73
2024/04/15 10:59:59;;;;;;;1.27;0.97;;;19.40;85.10;;;;;;5412878;26;20500;-72
2024/04/15 11:02:25;;;;;;;1.30;0.80;;;19.40;84.00;;;;;;5378554;26;20274;-72
2024/04/15 11:04:50;;;;;;;2.07;0.80;;;19.60;86.60;;;;;;5373664;26;20284;-72
2024/04/15 11:07:17;;;;;;;0.90;0.63;;;19.70;85.80;;;;;;5388505;26;20266;-73
2024/04/15 11:09:43;;;;;;;1.93;0.80;;;19.70;82.80;;;;;;5384441;26;20257;-72
2024/04/15 11:12:09;;;;;;;1.40;0.90;;;19.70;84.50;;;;;;5379343;26;20528;-72
2024/04/15 11:14:35;;;;;;;1.23;0.70;;;19.70;80.50;;;;;;5402513;26;20256;-72
2024/04/15 11:17:01;;;;;;;0.70;0.50;;;19.70;82.20;;;;;;5380239;26;20481;-72
2024/04/15 11:19:27;;;;;;;1.07;0.67;;;19.80;81.60;;;;;;5383062;26;20268;-71
2024/04/15 11:22:06;;;;;;;2.83;0.80;;;19.90;80.70;;;;;;5377402;26;20641;-72
2024/04/15 11:24:34;;;;;;;0.50;0.50;;;19.90;81.50;;;;;;5391351;26;20269;-72
2024/04/15 11:27:07;;;;;;;1.00;0.60;;;20.10;81.60;;;;;;5392423;26;20499;-74
2024/04/15 11:29:33;;;;;;;4.00;1.40;;;20.10;79.80;;;;;;5373090;26;20538;-73
2024/04/15 11:31:59;;;;;;;0.90;0.90;;;20.10;79.40;;;;;;5375418;26;20491;-73
2024/04/15 11:34:25;;;;;;;2.50;0.87;;;20.00;81.20;;;;;;5365439;26;20483;-72
2024/04/15 11:36:50;;;;;;;0.80;0.73;;;19.90;78.80;;;;;;5373995;26;21017;-75
2024/04/15 11:39:16;;;;;;;1.03;0.80;;;19.90;78.30;;;;;;5381428;26;20303;-71
2024/04/15 11:41:44;;;;;;;2.50;0.90;;;20.00;80.50;;;;;;5381829;26;20261;-73
2024/04/15 11:44:10;;;;;;;1.57;0.50;;;20.10;79.10;;;;;;5381788;26;20262;-72
2024/04/15 11:46:42;;;;;;;0.90;0.80;;;20.30;80.90;;;;;;5376208;26;20496;-72
2024/04/15 11:49:08;;;;;;;3.50;0.70;;;20.50;81.60;;;;;;5381874;26;20471;-72
2024/04/15 11:51:37;;;;;;;1.53;1.00;;;20.60;81.90;;;;;;5366293;26;20542;-69
2024/04/15 11:54:02;;;;;;;1.90;0.80;;;20.70;81.90;;;;;;5384126;26;20483;-73
2024/04/15 11:56:28;;;;;;;3.53;0.90;;;20.70;82.00;;;;;;5393893;26;20936;-72
2024/04/15 11:58:54;;;;;;;3.87;1.20;;;20.70;80.30;;;;;;5358341;26;20297;-73
2024/04/15 12:01:20;;;;;;;3.23;0.97;;;20.70;80.40;;;;;;5383745;26;20308;-72
2024/04/15 12:03:46;;;;;;;3.63;1.00;;;20.70;75.80;;;;;;5390294;26;20482;-76
2024/04/15 12:06:12;;;;;;;2.20;0.90;;;20.50;74.10;;;;;;5384199;26;20638;-72
2024/04/15 12:08:37;;;;;;;3.77;1.30;;;20.30;75.60;;;;;;5386624;26;20262;-74
2024/04/15 12:11:07;;;;;;;1.87;0.77;;;20.30;76.60;;;;;;5385017;26;20292;-72
2024/04/15 12:13:33;;;;;;;1.57;0.83;;;20.40;78.60;;;;;;5386521;26;20257;-72
2024/04/15 12:15:58;;;;;;;3.77;0.80;;;20.70;76.10;;;;;;5386196;26;20491;-71
2024/04/15 12:18:24;;;;;;;2.47;0.80;;;20.70;75.30;;;;;;5362222;26;20601;-73
2024/04/15 12:20:50;;;;;;;1.60;0.80;;;20.50;75.10;;;;;;5381912;26;20304;-76
2024/04/15 12:23:15;;;;;;;1.47;0.70;;;20.60;74.50;;;;;;5361774;26;20250;-75
2024/04/15 12:25:41;;;;;;;2.90;0.90;;;20.70;74.20;;;;;;5391559;26;20301;-70
2024/04/15 12:28:07;;;;;;;1.77;0.70;;;20.70;76.00;;;;;;5387997;26;20740;-73
2024/04/15 12:30:33;;;;;;;2.20;1.10;;;20.90;75.30;;;;;;5351129;26;20285;-72
2024/04/15 12:33:00;;;;;;;2.40;1.10;;;20.70;73.30;;;;;;5391965;26;20480;-72
2024/04/15 12:35:26;;;;;;;3.50;1.10;;;20.40;73.50;;;;;;5380257;26;20402;-72
2024/04/15 12:37:52;;;;;;;2.27;1.37;;;20.10;74.60;;;;;;5372981;26;21024;-72
2024/04/15 12:40:18;;;;;;;5.53;1.10;;;20.20;76.10;;;;;;5348914;26;20598;-72
2024/04/15 12:42:43;;;;;;;7.53;0.90;;;20.20;73.30;;;;;;5376130;26;20262;-73